METAR Data
IDs: Format: Raw Decoded Include TAF

Data at: 2208 UTC 21 May 2022

METAR for:KCKZ (Perkasie/Pennridge A, PA, US)
Text:KCKZ 212155Z AUTO 23005KT 10SM CLR 32/19 A3003 RMK AO2
Temperature: 32.0°C ( 90°F)
Dewpoint: 19.0°C ( 66°F) [RH = 46%]
Pressure (altimeter):30.03 inches Hg (1017.0 mb)
Winds:from the SW (230 degrees) at 6 MPH (5 knots; 2.6 m/s)
Visibility:10 or more sm (16+ km)
Ceiling:at least 12,000 feet AGL
Clouds:sky clear below 12,000 feet AGL
QC Flag:automated observation with no human augmentation